createdAt,value
2019-02-08T00:00:38.229Z,32.83
2019-02-08T00:03:06.144Z,33.30
2019-02-08T00:05:33.524Z,34.57
2019-02-08T00:08:00.799Z,27.40
2019-02-08T00:10:28.051Z,27.20
2019-02-08T00:12:55.760Z,25.27
2019-02-08T00:15:23.513Z,24.07
2019-02-08T00:17:50.841Z,31.20
2019-02-08T00:20:18.303Z,30.70
2019-02-08T00:22:46.058Z,24.53
2019-02-08T00:25:14.127Z,24.83
2019-02-08T00:27:41.503Z,28.90
2019-02-08T00:30:15.542Z,33.10
2019-02-08T00:32:42.909Z,23.20
2019-02-08T00:35:10.160Z,31.00
2019-02-08T00:37:37.420Z,26.03
2019-02-08T00:40:06.603Z,24.60
2019-02-08T00:42:33.947Z,23.80
2019-02-08T00:45:01.213Z,24.37
2019-02-08T00:47:28.556Z,32.73
2019-02-08T00:49:55.791Z,23.60
2019-02-08T00:52:23.024Z,25.13
2019-02-08T00:54:50.368Z,24.63
2019-02-08T00:57:17.728Z,23.43
2019-02-08T00:59:45.070Z,22.17
2019-02-08T01:02:12.420Z,28.73
2019-02-08T01:04:39.791Z,19.13
2019-02-08T01:07:07.240Z,21.23
2019-02-08T01:09:34.615Z,23.10
2019-02-08T01:12:01.871Z,21.87
2019-02-08T01:14:29.123Z,25.20
2019-02-08T01:16:56.453Z,18.53
2019-02-08T01:19:23.780Z,19.47
2019-02-08T01:21:51.028Z,23.30
2019-02-08T01:24:18.379Z,15.93
2019-02-08T01:26:45.627Z,14.63
2019-02-08T01:29:12.936Z,20.80
2019-02-08T01:31:40.220Z,14.70
2019-02-08T01:34:07.724Z,21.00
2019-02-08T01:36:34.948Z,23.30
2019-02-08T01:39:04.035Z,19.13
2019-02-08T01:41:31.259Z,17.53
2019-02-08T01:43:58.587Z,19.37
2019-02-08T01:46:25.871Z,27.60
2019-02-08T01:48:53.111Z,15.20
2019-02-08T01:51:20.363Z,20.53
2019-02-08T01:53:48.661Z,19.80
2019-02-08T01:56:16.347Z,20.87
2019-02-08T01:58:43.592Z,17.80
2019-02-08T02:01:10.828Z,17.07
2019-02-08T02:03:38.112Z,22.57
2019-02-08T02:06:05.378Z,15.63
2019-02-08T02:08:32.647Z,15.17
2019-02-08T02:10:59.949Z,17.47
2019-02-08T02:13:27.304Z,20.87
2019-02-08T02:15:54.557Z,20.93
2019-02-08T02:18:21.843Z,16.27
2019-02-08T02:20:49.138Z,17.83
2019-02-08T02:23:16.368Z,19.07
2019-02-08T02:25:43.787Z,19.60
2019-02-08T02:28:11.144Z,21.53
2019-02-08T02:30:38.794Z,18.97
2019-02-08T02:33:08.213Z,21.07
2019-02-08T02:35:35.608Z,17.33
2019-02-08T02:38:03.246Z,20.87
2019-02-08T02:40:30.496Z,19.33
2019-02-08T02:42:57.864Z,16.17
2019-02-08T02:45:31.092Z,21.80
2019-02-08T02:47:58.509Z,17.67
2019-02-08T02:50:25.918Z,18.53
2019-02-08T02:52:53.323Z,18.00
2019-02-08T02:55:22.136Z,17.00
2019-02-08T02:57:49.550Z,16.90
2019-02-08T03:00:26.963Z,19.77
2019-02-08T03:02:54.215Z,15.60
2019-02-08T03:05:21.510Z,21.40
2019-02-08T03:07:48.790Z,20.47
2019-02-08T03:10:17.125Z,20.97
2019-02-08T03:12:44.504Z,18.60
2019-02-08T03:15:14.635Z,19.17
2019-02-08T03:17:41.871Z,28.17
2019-02-08T03:20:11.444Z,23.67
2019-02-08T03:22:38.901Z,22.20
2019-02-08T03:25:06.868Z,16.23
2019-02-08T03:27:34.131Z,16.90
2019-02-08T03:30:01.393Z,24.30
2019-02-08T03:32:28.620Z,15.83
2019-02-08T03:34:55.864Z,20.90
2019-02-08T03:37:23.114Z,20.47
2019-02-08T03:39:50.338Z,17.00
2019-02-08T03:42:17.571Z,18.27
2019-02-08T03:44:45.040Z,26.07
2019-02-08T03:47:12.288Z,20.73
2019-02-08T03:49:39.541Z,25.07
2019-02-08T03:52:07.152Z,23.40
2019-02-08T03:54:34.472Z,14.97
2019-02-08T03:57:01.731Z,22.07
2019-02-08T03:59:29.063Z,16.27
2019-02-08T04:01:56.812Z,15.67
2019-02-08T04:04:24.122Z,20.17
2019-02-08T04:06:51.405Z,20.13
2019-02-08T04:09:18.688Z,18.17
2019-02-08T04:11:45.925Z,19.07
2019-02-08T04:14:13.192Z,23.17
2019-02-08T04:16:40.451Z,17.07
2019-02-08T04:19:07.799Z,17.67
2019-02-08T04:21:35.276Z,20.93
2019-02-08T04:24:02.735Z,23.00
2019-02-08T04:26:30.266Z,26.70
2019-02-08T04:28:57.622Z,18.33
2019-02-08T04:31:24.864Z,22.93
2019-02-08T04:33:52.079Z,14.80
2019-02-08T04:36:19.360Z,16.13
2019-02-08T04:38:46.688Z,19.50
2019-02-08T04:41:14.028Z,18.87
2019-02-08T04:43:41.255Z,31.03
2019-02-08T04:46:08.483Z,21.93
2019-02-08T04:48:35.727Z,21.90
2019-02-08T04:51:02.949Z,16.33
2019-02-08T04:53:30.191Z,22.63
2019-02-08T04:55:57.428Z,14.03
2019-02-08T04:58:24.655Z,17.47
2019-02-08T05:00:51.893Z,15.37
2019-02-08T05:03:19.194Z,18.27
2019-02-08T05:05:46.629Z,14.30
2019-02-08T05:08:13.874Z,16.97
2019-02-08T05:10:41.133Z,11.60
2019-02-08T05:13:08.405Z,18.63
2019-02-08T05:15:35.655Z,16.20
2019-02-08T05:18:02.995Z,13.80
2019-02-08T05:20:30.348Z,16.47
2019-02-08T05:22:57.741Z,13.90
2019-02-08T05:25:25.112Z,15.17
2019-02-08T05:27:52.828Z,18.57
2019-02-08T05:30:22.935Z,14.10
2019-02-08T05:32:50.159Z,16.53
2019-02-08T05:35:17.433Z,11.87
2019-02-08T05:37:44.793Z,22.60
2019-02-08T05:40:12.391Z,18.33
2019-02-08T05:42:39.619Z,18.63
2019-02-08T05:45:09.215Z,17.60
2019-02-08T05:47:36.475Z,13.97
2019-02-08T05:50:07.055Z,14.67
2019-02-08T05:52:34.427Z,14.43
2019-02-08T05:55:03.120Z,13.97
2019-02-08T05:57:30.434Z,15.90
2019-02-08T05:59:57.839Z,9.13
2019-02-08T06:02:26.088Z,21.53
2019-02-08T06:04:53.340Z,17.47
2019-02-08T06:07:20.689Z,13.87
2019-02-08T06:09:48.063Z,17.10
2019-02-08T06:12:15.585Z,17.80
2019-02-08T06:14:42.952Z,23.50
2019-02-08T06:17:10.281Z,18.63
2019-02-08T06:19:37.599Z,22.87
2019-02-08T06:22:05.023Z,26.83
2019-02-08T06:24:32.566Z,30.57
2019-02-08T06:26:59.940Z,24.77
2019-02-08T06:29:27.162Z,18.73
2019-02-08T06:31:54.465Z,18.67
2019-02-08T06:34:21.711Z,19.90
2019-02-08T06:36:48.959Z,13.30
2019-02-08T06:39:16.183Z,20.97
2019-02-08T06:41:43.507Z,15.83
2019-02-08T06:44:10.768Z,23.87
2019-02-08T06:46:38.013Z,17.73
2019-02-08T06:49:05.488Z,21.60
2019-02-08T06:51:32.750Z,22.27
2019-02-08T06:54:00.011Z,22.27
2019-02-08T06:56:45.311Z,21.63
2019-02-08T06:59:25.141Z,16.20
2019-02-08T07:02:15.166Z,14.13
2019-02-08T07:05:10.894Z,13.57
2019-02-08T07:08:03.802Z,25.33
2019-02-08T07:10:53.469Z,25.10
2019-02-08T07:13:46.012Z,18.70
2019-02-08T07:16:32.311Z,20.17
2019-02-08T07:19:19.195Z,18.07
2019-02-08T07:22:15.065Z,17.97
2019-02-08T07:24:51.015Z,25.77
2019-02-08T07:27:40.672Z,19.20
2019-02-08T07:30:28.991Z,20.20
2019-02-08T07:33:14.242Z,20.10
2019-02-08T07:35:52.725Z,14.30
2019-02-08T07:38:35.137Z,18.87
2019-02-08T07:41:25.084Z,15.17
2019-02-08T07:44:11.576Z,18.30
2019-02-08T07:46:56.517Z,21.20
2019-02-08T07:49:44.302Z,16.63
2019-02-08T07:52:19.063Z,16.97
2019-02-08T07:55:25.984Z,20.63
2019-02-08T07:57:58.829Z,25.57
2019-02-08T08:00:53.443Z,16.70
2019-02-08T08:03:34.406Z,20.73
2019-02-08T08:06:19.091Z,19.13
2019-02-08T08:08:55.939Z,16.03
2019-02-08T08:11:29.956Z,19.90
2019-02-08T08:14:05.401Z,15.77
2019-02-08T08:16:51.248Z,19.80
2019-02-08T08:19:38.450Z,18.43
2019-02-08T08:22:31.227Z,21.77
2019-02-08T08:25:07.299Z,17.83
2019-02-08T08:27:55.053Z,18.70
2019-02-08T08:30:42.475Z,23.70
2019-02-08T08:33:45.268Z,13.27
2019-02-08T08:36:57.137Z,23.37
2019-02-08T08:40:21.363Z,25.17
2019-02-08T08:43:48.351Z,24.00
2019-02-08T08:46:32.852Z,18.77
2019-02-08T08:49:56.103Z,16.63
2019-02-08T08:52:50.293Z,19.13
2019-02-08T08:55:46.125Z,19.60
2019-02-08T08:58:50.063Z,14.90
2019-02-08T09:02:09.576Z,15.83
2019-02-08T09:05:06.158Z,13.87
2019-02-08T09:07:59.159Z,13.63
2019-02-08T09:10:45.234Z,7.50
2019-02-08T09:13:49.119Z,15.30
2019-02-08T09:17:15.324Z,12.43
2019-02-08T09:20:20.291Z,9.63
2019-02-08T09:23:17.555Z,9.87
2019-02-08T09:26:29.431Z,13.40
2019-02-08T09:29:52.735Z,8.57
2019-02-08T09:32:57.538Z,8.17
2019-02-08T09:36:15.219Z,15.07
2019-02-08T09:39:11.079Z,12.73
2019-02-08T09:42:47.392Z,9.97
2019-02-08T09:45:38.101Z,16.73
2019-02-08T09:48:32.953Z,12.57
2019-02-08T09:51:39.050Z,8.90
2019-02-08T09:54:35.719Z,10.20
2019-02-08T09:57:21.989Z,13.63
2019-02-08T10:00:23.576Z,29.70
2019-02-08T10:03:27.600Z,15.30
2019-02-08T10:06:58.327Z,20.90
2019-02-08T10:10:15.680Z,21.70
2019-02-08T10:13:24.830Z,13.27
2019-02-08T10:16:27.135Z,13.87
2019-02-08T10:19:30.946Z,12.30
2019-02-08T10:22:35.085Z,11.43
2019-02-08T10:25:29.568Z,42.67
2019-02-08T10:28:46.855Z,19.27
2019-02-08T10:31:57.724Z,17.47
2019-02-08T10:34:52.759Z,16.00
2019-02-08T10:38:02.397Z,21.77
2019-02-08T10:41:35.671Z,18.53
2019-02-08T10:44:59.235Z,15.30
2019-02-08T10:48:04.249Z,14.90
2019-02-08T10:50:57.191Z,13.13
2019-02-08T10:53:55.051Z,15.73
2019-02-08T10:57:17.701Z,9.03
2019-02-08T11:00:34.359Z,19.13
2019-02-08T11:03:54.214Z,7.60
2019-02-08T11:07:04.573Z,12.80
2019-02-08T11:10:26.787Z,14.27
2019-02-08T11:13:33.413Z,11.80
2019-02-08T11:16:47.802Z,10.17
2019-02-08T11:19:32.806Z,9.37
2019-02-08T11:22:07.214Z,11.00
2019-02-08T11:24:37.779Z,7.80
2019-02-08T11:27:06.583Z,10.27
2019-02-08T11:29:37.316Z,10.03
2019-02-08T11:32:09.547Z,9.80
2019-02-08T11:34:40.257Z,13.93
2019-02-08T11:37:15.411Z,8.00
2019-02-08T11:39:45.864Z,8.70
2019-02-08T11:42:16.039Z,4.93
2019-02-08T11:44:56.631Z,11.00
2019-02-08T11:47:43.648Z,9.13
2019-02-08T11:50:19.866Z,7.13
2019-02-08T11:52:47.727Z,8.57
2019-02-08T11:55:15.103Z,7.37
2019-02-08T11:57:42.396Z,5.80
2019-02-08T12:00:21.443Z,6.73
2019-02-08T12:02:48.901Z,8.63
2019-02-08T12:05:16.143Z,8.70
2019-02-08T12:07:43.379Z,4.40
2019-02-08T12:10:10.990Z,5.00
2019-02-08T12:12:38.279Z,4.13
2019-02-08T12:15:06.214Z,5.10
2019-02-08T12:17:34.225Z,7.30
2019-02-08T12:20:01.530Z,9.13
2019-02-08T12:22:28.759Z,8.97
2019-02-08T12:24:56.639Z,8.83
2019-02-08T12:27:24.314Z,10.80
2019-02-08T12:29:51.651Z,6.97
2019-02-08T12:32:18.904Z,8.00
2019-02-08T12:34:46.260Z,13.90
2019-02-08T12:37:13.524Z,10.03
2019-02-08T12:39:40.756Z,5.67
2019-02-08T12:42:08.017Z,7.17
2019-02-08T12:44:35.263Z,5.90
2019-02-08T12:47:05.444Z,11.60
2019-02-08T12:49:32.803Z,11.40
2019-02-08T12:52:00.078Z,7.13
2019-02-08T12:54:27.341Z,12.23
2019-02-08T12:56:54.587Z,7.83
2019-02-08T12:59:21.879Z,5.67
2019-02-08T13:01:49.257Z,8.17
2019-02-08T13:04:16.496Z,8.17
2019-02-08T13:06:43.732Z,5.30
2019-02-08T13:09:11.353Z,12.07
2019-02-08T13:11:38.711Z,14.47
2019-02-08T13:14:05.981Z,9.70
2019-02-08T13:16:35.345Z,6.27
2019-02-08T13:19:02.590Z,6.00
2019-02-08T13:21:29.826Z,9.37
2019-02-08T13:23:57.096Z,9.67
2019-02-08T13:26:24.350Z,8.33
2019-02-08T13:28:51.589Z,6.60
2019-02-08T13:31:18.842Z,5.80
2019-02-08T13:33:46.112Z,6.40
2019-02-08T13:36:14.008Z,7.47
2019-02-08T13:38:41.272Z,6.50
2019-02-08T13:41:08.504Z,9.83
2019-02-08T13:43:35.739Z,7.27
2019-02-08T13:46:03.025Z,3.17
2019-02-08T13:48:30.318Z,8.23
2019-02-08T13:50:57.660Z,5.60
2019-02-08T13:53:25.928Z,7.77
2019-02-08T13:55:53.207Z,3.53
2019-02-08T13:58:20.463Z,4.13
2019-02-08T14:00:47.971Z,6.90
2019-02-08T14:03:15.281Z,9.70
2019-02-08T14:05:42.567Z,6.20
2019-02-08T14:08:09.808Z,9.47
2019-02-08T14:10:37.054Z,6.33
2019-02-08T14:13:04.471Z,4.63
2019-02-08T14:15:31.919Z,10.67
2019-02-08T14:17:59.160Z,5.73
2019-02-08T14:20:27.838Z,4.43
2019-02-08T14:22:55.570Z,4.90
2019-02-08T14:25:23.638Z,7.43
2019-02-08T14:27:51.112Z,5.47
2019-02-08T14:30:24.316Z,5.57
2019-02-08T14:32:51.565Z,6.90
2019-02-08T14:35:18.855Z,3.10
2019-02-08T14:37:46.184Z,4.90
2019-02-08T14:40:16.505Z,3.67
2019-02-08T14:42:43.749Z,2.93
2019-02-08T14:45:11.332Z,10.27
2019-02-08T14:47:38.589Z,5.53
2019-02-08T14:50:07.308Z,3.37
2019-02-08T14:52:34.611Z,8.60
2019-02-08T14:55:01.839Z,3.07
2019-02-08T14:57:29.233Z,4.97
2019-02-08T14:59:56.527Z,7.97
2019-02-08T15:02:24.600Z,5.40
2019-02-08T15:04:51.951Z,8.00
2019-02-08T15:07:19.233Z,4.97
2019-02-08T15:09:46.548Z,19.97
2019-02-08T15:12:13.848Z,9.17
2019-02-08T15:14:41.199Z,15.07
2019-02-08T15:17:08.467Z,5.87
2019-02-08T15:19:35.745Z,6.43
2019-02-08T15:22:02.969Z,7.53
2019-02-08T15:24:30.212Z,9.37
2019-02-08T15:26:57.479Z,7.00
2019-02-08T15:29:24.722Z,7.90
2019-02-08T15:31:52.153Z,7.50
2019-02-08T15:34:19.395Z,9.03
2019-02-08T15:36:49.208Z,6.57
2019-02-08T15:39:15.949Z,5.80
2019-02-08T15:41:43.192Z,11.20
2019-02-08T15:44:10.487Z,6.90
2019-02-08T15:46:37.832Z,6.83
2019-02-08T15:49:05.289Z,5.37
2019-02-08T15:51:32.663Z,14.50
2019-02-08T15:53:59.904Z,4.43
2019-02-08T15:56:29.899Z,7.37
2019-02-08T15:58:57.140Z,4.97
2019-02-08T16:01:24.517Z,10.20
2019-02-08T16:03:51.764Z,5.67
2019-02-08T16:06:19.011Z,10.03
2019-02-08T16:08:46.247Z,6.67
2019-02-08T16:11:14.008Z,3.30
2019-02-08T16:13:41.285Z,14.00
2019-02-08T16:16:09.123Z,13.53
2019-02-08T16:18:36.459Z,7.57
2019-02-08T16:21:05.784Z,7.33
2019-02-08T16:23:33.031Z,7.50
2019-02-08T16:26:00.300Z,4.23
2019-02-08T16:28:29.525Z,6.60
2019-02-08T16:30:56.939Z,7.70
2019-02-08T16:33:24.255Z,10.63
2019-02-08T16:35:52.030Z,4.63
2019-02-08T16:38:19.287Z,5.47
2019-02-08T16:40:46.524Z,4.50
2019-02-08T16:43:14.284Z,4.40
2019-02-08T16:45:42.435Z,2.47
2019-02-08T16:48:09.869Z,9.43
2019-02-08T16:50:37.480Z,9.13
2019-02-08T16:53:06.117Z,7.37
2019-02-08T16:55:33.384Z,5.13
2019-02-08T16:58:00.736Z,6.43
2019-02-08T17:00:31.319Z,8.30
2019-02-08T17:03:00.055Z,3.90
2019-02-08T17:05:30.324Z,5.47
2019-02-08T17:07:57.638Z,5.30
2019-02-08T17:10:24.911Z,9.13
2019-02-08T17:12:54.194Z,6.60
2019-02-08T17:15:54.832Z,8.30
2019-02-08T17:18:22.296Z,6.60
2019-02-08T17:20:49.835Z,6.90
2019-02-08T17:23:17.123Z,10.50
2019-02-08T17:25:44.631Z,7.33
2019-02-08T17:28:13.094Z,9.97
2019-02-08T17:30:40.470Z,10.37
2019-02-08T17:33:08.957Z,6.17
2019-02-08T17:35:36.486Z,7.43
2019-02-08T17:38:04.076Z,5.67
2019-02-08T17:40:36.401Z,6.33
2019-02-08T17:43:09.920Z,12.57
2019-02-08T17:45:54.371Z,5.57
2019-02-08T17:48:21.768Z,4.57
2019-02-08T17:50:50.060Z,6.10
2019-02-08T17:53:17.359Z,2.87
2019-02-08T17:55:49.459Z,9.83
2019-02-08T17:58:19.447Z,9.17
2019-02-08T18:00:50.120Z,6.67
2019-02-08T18:03:17.393Z,12.03
2019-02-08T18:05:44.734Z,4.77
2019-02-08T18:08:12.096Z,5.57
2019-02-08T18:10:39.487Z,2.73
2019-02-08T18:13:07.414Z,5.40
2019-02-08T18:15:36.071Z,8.37
2019-02-08T18:18:04.273Z,6.53
2019-02-08T18:20:40.349Z,5.90
2019-02-08T18:23:07.885Z,5.93
2019-02-08T18:25:40.824Z,7.97
2019-02-08T18:28:11.142Z,6.93
2019-02-08T18:30:38.473Z,7.30
2019-02-08T18:33:31.424Z,7.33
2019-02-08T18:36:30.018Z,7.60
2019-02-08T18:38:57.620Z,4.87
2019-02-08T18:41:26.676Z,9.53
2019-02-08T18:44:02.328Z,12.97
2019-02-08T18:47:01.294Z,10.93
2019-02-08T18:49:42.329Z,9.93
2019-02-08T18:52:29.061Z,40.07
2019-02-08T18:55:26.246Z,9.70
2019-02-08T18:57:59.692Z,29.13
2019-02-08T19:00:39.925Z,8.27
2019-02-08T19:03:05.456Z,9.60
2019-02-08T19:05:32.830Z,3.30
2019-02-08T19:08:09.515Z,4.20
2019-02-08T19:10:36.787Z,6.83
2019-02-08T19:13:04.351Z,7.50
2019-02-08T19:15:31.775Z,21.97
2019-02-08T19:17:59.162Z,14.23
2019-02-08T19:20:35.889Z,4.43
2019-02-08T19:23:09.208Z,6.90
2019-02-08T19:25:43.095Z,7.10
2019-02-08T19:28:11.564Z,8.30
2019-02-08T19:30:38.996Z,5.00
2019-02-08T19:33:07.410Z,9.50
2019-02-08T19:35:46.615Z,5.97
2019-02-08T19:38:14.624Z,6.80
2019-02-08T19:40:43.816Z,4.33
2019-02-08T19:43:32.468Z,6.87
2019-02-08T19:45:59.830Z,10.90
2019-02-08T19:48:27.067Z,5.20
2019-02-08T19:50:54.630Z,6.07
2019-02-08T19:53:21.882Z,7.40
2019-02-08T19:55:49.568Z,9.80
2019-02-08T19:58:34.399Z,10.20
2019-02-08T20:00:57.803Z,10.40
2019-02-08T20:03:25.113Z,10.43
2019-02-08T20:05:52.360Z,6.30
2019-02-08T20:08:19.607Z,8.77
2019-02-08T20:10:47.474Z,9.27
2019-02-08T20:13:14.725Z,10.17
2019-02-08T20:15:42.047Z,3.90
2019-02-08T20:18:09.340Z,12.40
2019-02-08T20:20:36.684Z,6.47
2019-02-08T20:23:05.499Z,7.57
2019-02-08T20:25:32.912Z,10.00
2019-02-08T20:28:00.495Z,8.40
2019-02-08T20:30:40.249Z,5.43
2019-02-08T20:33:07.631Z,8.43
2019-02-08T20:35:35.037Z,14.40
2019-02-08T20:38:02.912Z,16.00
2019-02-08T20:40:32.251Z,7.00
2019-02-08T20:42:59.508Z,11.53
2019-02-08T20:45:28.535Z,7.87
2019-02-08T20:47:57.946Z,7.50
2019-02-08T20:50:25.592Z,9.87
2019-02-08T20:52:53.372Z,7.47
2019-02-08T20:55:26.635Z,4.30
2019-02-08T20:57:54.074Z,9.63
2019-02-08T21:00:35.800Z,6.83
2019-02-08T21:03:06.091Z,8.50
2019-02-08T21:05:33.462Z,10.77
2019-02-08T21:08:00.713Z,5.20
2019-02-08T21:10:29.028Z,6.27
2019-02-08T21:12:56.318Z,9.20
2019-02-08T21:15:23.804Z,9.33
2019-02-08T21:17:51.184Z,6.97
2019-02-08T21:20:19.163Z,8.07
2019-02-08T21:22:46.607Z,9.30
2019-02-08T21:25:17.328Z,4.60
2019-02-08T21:27:44.634Z,2.97
2019-02-08T21:30:13.233Z,6.27
2019-02-08T21:32:40.608Z,8.67
2019-02-08T21:35:08.539Z,9.20
2019-02-08T21:37:36.205Z,10.07
2019-02-08T21:40:06.082Z,5.37
2019-02-08T21:42:33.359Z,11.67
2019-02-08T21:45:00.600Z,6.40
2019-02-08T21:47:27.840Z,7.37
2019-02-08T21:49:55.315Z,9.77
2019-02-08T21:52:22.551Z,8.53
2019-02-08T21:54:49.847Z,7.83
2019-02-08T21:57:17.075Z,8.47
2019-02-08T21:59:44.323Z,8.03
2019-02-08T22:02:11.602Z,8.33
2019-02-08T22:04:39.929Z,13.90
2019-02-08T22:07:07.476Z,5.57
2019-02-08T22:09:35.051Z,9.20
2019-02-08T22:12:02.981Z,4.87
2019-02-08T22:14:30.576Z,5.47
2019-02-08T22:17:00.443Z,7.67
2019-02-08T22:19:27.800Z,6.30
2019-02-08T22:21:55.158Z,4.53
2019-02-08T22:24:22.587Z,7.80
2019-02-08T22:26:49.980Z,5.87
2019-02-08T22:29:17.340Z,4.17
2019-02-08T22:31:44.668Z,4.97
2019-02-08T22:34:12.020Z,10.33
2019-02-08T22:36:39.387Z,7.77
2019-02-08T22:39:07.916Z,6.93
2019-02-08T22:41:35.282Z,7.37
2019-02-08T22:44:02.796Z,8.73
2019-02-08T22:46:34.429Z,5.73
2019-02-08T22:49:01.986Z,6.30
2019-02-08T22:51:29.443Z,5.80
2019-02-08T22:53:56.766Z,8.40
2019-02-08T22:56:24.134Z,3.37
2019-02-08T22:58:51.481Z,5.83
2019-02-08T23:01:25.862Z,4.13
2019-02-08T23:03:54.507Z,9.40
2019-02-08T23:06:21.850Z,3.30
2019-02-08T23:08:49.341Z,4.63
2019-02-08T23:11:17.831Z,5.80
2019-02-08T23:13:45.293Z,8.30
2019-02-08T23:16:12.825Z,12.63
2019-02-08T23:18:40.590Z,5.30
2019-02-08T23:21:08.159Z,9.47
2019-02-08T23:23:36.933Z,6.20
2019-02-08T23:26:05.580Z,3.80
2019-02-08T23:28:33.071Z,8.93
2019-02-08T23:31:00.555Z,9.00
2019-02-08T23:33:27.991Z,7.20
2019-02-08T23:35:55.275Z,9.10
2019-02-08T23:38:22.594Z,11.53
2019-02-08T23:40:50.114Z,7.57
2019-02-08T23:43:20.396Z,4.97
2019-02-08T23:45:47.694Z,8.30
2019-02-08T23:48:22.431Z,11.50
2019-02-08T23:50:52.327Z,5.53
2019-02-08T23:53:21.707Z,4.90
2019-02-08T23:55:49.325Z,4.23
2019-02-08T23:58:16.670Z,7.23
